sensor_id;sensor_type;location;lat;lon;timestamp;pressure;altitude;pressure_sealevel;temperature;humidity
28648;BME280;17137;51.494;-0.262;2023-09-19T00:00:29;50247.65;;;-145.72;77.53
28648;BME280;17137;51.494;-0.262;2023-09-19T00:00:59;50242.97;;;-145.72;77.94
28648;BME280;17137;51.494;-0.262;2023-09-19T00:01:29;50249.50;;;-145.72;77.51
28648;BME280;17137;51.494;-0.262;2023-09-19T00:02:00;50236.68;;;-145.72;77.24
28648;BME280;17137;51.494;-0.262;2023-09-19T00:02:30;50251.60;;;-145.72;77.24
28648;BME280;17137;51.494;-0.262;2023-09-19T00:03:00;50240.26;;;-145.72;77.04
28648;BME280;17137;51.494;-0.262;2023-09-19T00:03:31;50255.05;;;-145.72;77.62
28648;BME280;17137;51.494;-0.262;2023-09-19T00:04:01;50258.50;;;-145.72;78.00
28648;BME280;17137;51.494;-0.262;2023-09-19T00:04:31;50253.57;;;-145.72;77.71
28648;BME280;17137;51.494;-0.262;2023-09-19T00:05:02;50248.88;;;-145.72;78.05
28648;BME280;17137;51.494;-0.262;2023-09-19T00:05:34;50262.32;;;-145.72;78.10
28648;BME280;17137;51.494;-0.262;2023-09-19T00:06:05;50257.51;;;-145.72;78.55
28648;BME280;17137;51.494;-0.262;2023-09-19T00:06:36;50249.62;;;-145.72;78.53
28648;BME280;17137;51.494;-0.262;2023-09-19T00:07:07;50249.87;;;-145.72;78.01
28648;BME280;17137;51.494;-0.262;2023-09-19T00:07:37;50251.60;;;-145.72;78.23
28648;BME280;17137;51.494;-0.262;2023-09-19T00:08:07;50243.46;;;-145.72;78.17
28648;BME280;17137;51.494;-0.262;2023-09-19T00:08:37;50252.34;;;-145.72;77.88
28648;BME280;17137;51.494;-0.262;2023-09-19T00:09:07;50252.83;;;-145.72;77.91
28648;BME280;17137;51.494;-0.262;2023-09-19T00:09:38;50237.05;;;-145.72;77.74
28648;BME280;17137;51.494;-0.262;2023-09-19T00:10:08;50243.21;;;-145.72;77.51
28648;BME280;17137;51.494;-0.262;2023-09-19T00:10:39;50250.24;;;-145.72;77.12
28648;BME280;17137;51.494;-0.262;2023-09-19T00:11:09;50252.83;;;-145.72;77.53
28648;BME280;17137;51.494;-0.262;2023-09-19T00:11:40;50242.10;;;-145.72;77.91
28648;BME280;17137;51.494;-0.262;2023-09-19T00:12:10;50253.44;;;-145.72;77.90
28648;BME280;17137;51.494;-0.262;2023-09-19T00:12:43;50259.85;;;-145.72;77.86
28648;BME280;17137;51.494;-0.262;2023-09-19T00:13:13;50260.96;;;-145.72;77.88
28648;BME280;17137;51.494;-0.262;2023-09-19T00:13:43;50257.64;;;-145.72;78.12
28648;BME280;17137;51.494;-0.262;2023-09-19T00:14:13;50248.27;;;-145.72;77.81
28648;BME280;17137;51.494;-0.262;2023-09-19T00:14:44;50248.02;;;-145.72;78.07
28648;BME280;17137;51.494;-0.262;2023-09-19T00:15:14;50243.83;;;-145.72;78.13
28648;BME280;17137;51.494;-0.262;2023-09-19T00:15:46;50245.68;;;-145.72;77.97
28648;BME280;17137;51.494;-0.262;2023-09-19T00:16:16;50258.87;;;-145.72;77.83
28648;BME280;17137;51.494;-0.262;2023-09-19T00:16:47;50250.61;;;-145.72;77.80
28648;BME280;17137;51.494;-0.262;2023-09-19T00:17:17;50257.14;;;-145.72;77.65
28648;BME280;17137;51.494;-0.262;2023-09-19T00:17:47;50254.80;;;-145.72;77.73
28648;BME280;17137;51.494;-0.262;2023-09-19T00:18:18;50247.28;;;-145.72;77.62
28648;BME280;17137;51.494;-0.262;2023-09-19T00:18:48;50247.16;;;-145.72;77.50
28648;BME280;17137;51.494;-0.262;2023-09-19T00:19:19;50244.08;;;-145.72;78.03
28648;BME280;17137;51.494;-0.262;2023-09-19T00:19:49;50252.21;;;-145.72;78.20
28648;BME280;17137;51.494;-0.262;2023-09-19T00:20:19;50250.73;;;-145.72;77.99
28648;BME280;17137;51.494;-0.262;2023-09-19T00:20:50;50264.66;;;-145.72;77.88
28648;BME280;17137;51.494;-0.262;2023-09-19T00:21:20;50250.86;;;-145.72;77.73
28648;BME280;17137;51.494;-0.262;2023-09-19T00:21:50;50242.84;;;-145.72;77.63
28648;BME280;17137;51.494;-0.262;2023-09-19T00:22:20;50247.16;;;-145.72;77.68
28648;BME280;17137;51.494;-0.262;2023-09-19T00:22:51;50240.99;;;-145.72;77.61
28648;BME280;17137;51.494;-0.262;2023-09-19T00:23:21;50243.95;;;-145.72;77.66
28648;BME280;17137;51.494;-0.262;2023-09-19T00:23:51;50240.99;;;-145.72;77.92
28648;BME280;17137;51.494;-0.262;2023-09-19T00:24:22;50260.59;;;-145.72;77.97
28648;BME280;17137;51.494;-0.262;2023-09-19T00:24:52;50260.35;;;-145.72;78.33
28648;BME280;17137;51.494;-0.262;2023-09-19T00:25:22;50252.83;;;-145.72;78.35
28648;BME280;17137;51.494;-0.262;2023-09-19T00:25:53;50251.23;;;-145.72;78.00
28648;BME280;17137;51.494;-0.262;2023-09-19T00:26:23;50251.84;;;-145.72;78.18
28648;BME280;17137;51.494;-0.262;2023-09-19T00:26:53;50251.60;;;-145.72;78.21
28648;BME280;17137;51.494;-0.262;2023-09-19T00:27:23;50238.16;;;-145.72;77.76
28648;BME280;17137;51.494;-0.262;2023-09-19T00:27:54;50251.97;;;-145.72;77.59
28648;BME280;17137;51.494;-0.262;2023-09-19T00:28:25;50238.04;;;-145.72;77.53
28648;BME280;17137;51.494;-0.262;2023-09-19T00:28:55;50242.97;;;-145.72;77.50
28648;BME280;17137;51.494;-0.262;2023-09-19T00:29:26;50248.27;;;-145.72;77.62
28648;BME280;17137;51.494;-0.262;2023-09-19T00:29:56;50243.71;;;-145.72;77.49
28648;BME280;17137;51.494;-0.262;2023-09-19T00:30:27;50239.39;;;-145.72;77.34
28648;BME280;17137;51.494;-0.262;2023-09-19T00:30:57;50245.43;;;-145.72;77.52
28648;BME280;17137;51.494;-0.262;2023-09-19T00:31:27;50241.36;;;-145.72;77.57
28648;BME280;17137;51.494;-0.262;2023-09-19T00:31:57;50241.61;;;-145.72;77.42
28648;BME280;17137;51.494;-0.262;2023-09-19T00:32:28;50247.53;;;-145.72;77.56
28648;BME280;17137;51.494;-0.262;2023-09-19T00:32:58;50251.84;;;-145.72;77.54
28648;BME280;17137;51.494;-0.262;2023-09-19T00:33:28;50247.65;;;-145.72;77.36
28648;BME280;17137;51.494;-0.262;2023-09-19T00:33:59;50254.18;;;-145.72;77.47
28648;BME280;17137;51.494;-0.262;2023-09-19T00:34:31;50259.85;;;-145.72;77.39
28648;BME280;17137;51.494;-0.262;2023-09-19T00:35:01;50245.56;;;-145.72;77.35
28648;BME280;17137;51.494;-0.262;2023-09-19T00:35:31;50256.16;;;-145.72;77.47
28648;BME280;17137;51.494;-0.262;2023-09-19T00:36:02;50239.02;;;-145.72;77.77
28648;BME280;17137;51.494;-0.262;2023-09-19T00:36:32;50242.10;;;-145.72;77.55
28648;BME280;17137;51.494;-0.262;2023-09-19T00:37:03;50245.19;;;-145.72;77.51
28648;BME280;17137;51.494;-0.262;2023-09-19T00:37:33;50240.87;;;-145.72;77.38
28648;BME280;17137;51.494;-0.262;2023-09-19T00:38:03;50246.42;;;-145.72;78.21
28648;BME280;17137;51.494;-0.262;2023-09-19T00:38:33;50237.91;;;-145.72;77.74
28648;BME280;17137;51.494;-0.262;2023-09-19T00:39:04;50242.84;;;-145.72;77.27
28648;BME280;17137;51.494;-0.262;2023-09-19T00:39:34;50237.54;;;-145.72;77.18
28648;BME280;17137;51.494;-0.262;2023-09-19T00:40:05;50242.35;;;-145.72;77.23
28648;BME280;17137;51.494;-0.262;2023-09-19T00:40:36;50239.89;;;-145.72;77.56
28648;BME280;17137;51.494;-0.262;2023-09-19T00:41:06;50241.73;;;-145.72;77.52
28648;BME280;17137;51.494;-0.262;2023-09-19T00:41:36;50235.32;;;-145.72;77.12
28648;BME280;17137;51.494;-0.262;2023-09-19T00:42:07;50242.60;;;-145.72;77.86
28648;BME280;17137;51.494;-0.262;2023-09-19T00:42:37;50245.43;;;-145.72;77.67
28648;BME280;17137;51.494;-0.262;2023-09-19T00:43:08;50236.43;;;-145.72;77.46
28648;BME280;17137;51.494;-0.262;2023-09-19T00:43:38;50231.63;;;-145.72;77.21
28648;BME280;17137;51.494;-0.262;2023-09-19T00:44:08;50261.09;;;-145.72;77.78
28648;BME280;17137;51.494;-0.262;2023-09-19T00:44:39;50246.05;;;-145.72;77.41
28648;BME280;17137;51.494;-0.262;2023-09-19T00:45:10;50244.82;;;-145.72;77.02
28648;BME280;17137;51.494;-0.262;2023-09-19T00:45:43;50237.42;;;-145.72;77.15
28648;BME280;17137;51.494;-0.262;2023-09-19T00:46:17;50244.45;;;-145.72;77.23
28648;BME280;17137;51.494;-0.262;2023-09-19T00:46:47;50246.54;;;-145.72;77.35
28648;BME280;17137;51.494;-0.262;2023-09-19T00:47:17;50256.16;;;-145.72;77.47
28648;BME280;17137;51.494;-0.262;2023-09-19T00:47:50;50246.79;;;-145.72;77.55
28648;BME280;17137;51.494;-0.262;2023-09-19T00:48:22;50260.35;;;-145.72;77.69
28648;BME280;17137;51.494;-0.262;2023-09-19T00:48:52;50258.99;;;-145.72;78.04
28648;BME280;17137;51.494;-0.262;2023-09-19T00:49:22;50255.54;;;-145.72;78.02
28648;BME280;17137;51.494;-0.262;2023-09-19T00:49:53;50246.67;;;-145.72;77.98
28648;BME280;17137;51.494;-0.262;2023-09-19T00:50:25;50256.40;;;-145.72;78.27
28648;BME280;17137;51.494;-0.262;2023-09-19T00:50:58;50259.36;;;-145.72;79.09
28648;BME280;17137;51.494;-0.262;2023-09-19T00:51:32;50258.87;;;-145.72;78.64
28648;BME280;17137;51.494;-0.262;2023-09-19T00:52:02;50245.43;;;-145.72;78.56
28648;BME280;17137;51.494;-0.262;2023-09-19T00:52:33;50246.91;;;-145.72;78.48
28648;BME280;17137;51.494;-0.262;2023-09-19T00:53:04;50245.68;;;-145.72;78.37
28648;BME280;17137;51.494;-0.262;2023-09-19T00:53:34;50263.55;;;-145.72;78.47
28648;BME280;17137;51.494;-0.262;2023-09-19T00:54:05;50256.16;;;-145.72;78.64
28648;BME280;17137;51.494;-0.262;2023-09-19T00:54:35;50263.68;;;-145.72;78.74
28648;BME280;17137;51.494;-0.262;2023-09-19T00:55:07;50265.90;;;-145.72;78.75
28648;BME280;17137;51.494;-0.262;2023-09-19T00:55:38;50266.51;;;-145.72;78.87
28648;BME280;17137;51.494;-0.262;2023-09-19T00:56:08;50260.72;;;-145.72;78.45
28648;BME280;17137;51.494;-0.262;2023-09-19T00:56:38;50252.09;;;-145.72;78.14
28648;BME280;17137;51.494;-0.262;2023-09-19T00:57:09;50261.21;;;-145.72;78.00
28648;BME280;17137;51.494;-0.262;2023-09-19T00:57:40;50260.47;;;-145.72;78.25
28648;BME280;17137;51.494;-0.262;2023-09-19T00:58:10;50249.01;;;-145.72;78.15
28648;BME280;17137;51.494;-0.262;2023-09-19T00:58:41;50254.55;;;-145.72;78.04
28648;BME280;17137;51.494;-0.262;2023-09-19T00:59:11;50251.10;;;-145.72;78.12
28648;BME280;17137;51.494;-0.262;2023-09-19T00:59:42;50254.80;;;-145.72;78.17
28648;BME280;17137;51.494;-0.262;2023-09-19T01:00:13;50248.02;;;-145.72;78.29
28648;BME280;17137;51.494;-0.262;2023-09-19T01:00:43;50253.20;;;-145.72;78.09
28648;BME280;17137;51.494;-0.262;2023-09-19T01:01:14;50257.27;;;-145.72;78.02
28648;BME280;17137;51.494;-0.262;2023-09-19T01:01:44;50266.26;;;-145.72;78.55
28648;BME280;17137;51.494;-0.262;2023-09-19T01:02:16;50252.83;;;-145.72;78.41
28648;BME280;17137;51.494;-0.262;2023-09-19T01:02:47;50251.47;;;-145.72;78.27
28648;BME280;17137;51.494;-0.262;2023-09-19T01:03:18;50254.80;;;-145.72;78.30
28648;BME280;17137;51.494;-0.262;2023-09-19T01:03:48;50259.73;;;-145.72;78.50
28648;BME280;17137;51.494;-0.262;2023-09-19T01:04:20;50244.94;;;-145.72;78.16
28648;BME280;17137;51.494;-0.262;2023-09-19T01:04:50;50257.27;;;-145.72;77.89
28648;BME280;17137;51.494;-0.262;2023-09-19T01:05:21;50261.83;;;-145.72;78.11
28648;BME280;17137;51.494;-0.262;2023-09-19T01:05:51;50260.96;;;-145.72;78.26
28648;BME280;17137;51.494;-0.262;2023-09-19T01:06:21;50257.88;;;-145.72;78.31
28648;BME280;17137;51.494;-0.262;2023-09-19T01:06:52;50260.47;;;-145.72;78.42
28648;BME280;17137;51.494;-0.262;2023-09-19T01:07:22;50256.65;;;-145.72;78.58
28648;BME280;17137;51.494;-0.262;2023-09-19T01:07:53;50253.57;;;-145.72;78.43
28648;BME280;17137;51.494;-0.262;2023-09-19T01:08:23;50267.37;;;-145.72;78.65
28648;BME280;17137;51.494;-0.262;2023-09-19T01:08:53;50246.42;;;-145.72;78.30
28648;BME280;17137;51.494;-0.262;2023-09-19T01:09:23;50249.75;;;-145.72;78.17
28648;BME280;17137;51.494;-0.262;2023-09-19T01:09:54;50256.90;;;-145.72;78.31
28648;BME280;17137;51.494;-0.262;2023-09-19T01:10:25;50267.37;;;-145.72;78.07
28648;BME280;17137;51.494;-0.262;2023-09-19T01:11:01;50243.46;;;-145.72;77.62
28648;BME280;17137;51.494;-0.262;2023-09-19T01:11:38;50252.09;;;-145.72;77.58
28648;BME280;17137;51.494;-0.262;2023-09-19T01:12:13;50245.93;;;-145.72;77.83
28648;BME280;17137;51.494;-0.262;2023-09-19T01:12:53;50251.84;;;-145.72;77.75
28648;BME280;17137;51.494;-0.262;2023-09-19T01:13:30;50242.84;;;-145.72;77.44
28648;BME280;17137;51.494;-0.262;2023-09-19T01:14:13;50251.97;;;-145.72;77.22
28648;BME280;17137;51.494;-0.262;2023-09-19T01:14:54;50234.95;;;-145.72;76.93
28648;BME280;17137;51.494;-0.262;2023-09-19T01:15:32;50234.22;;;-145.72;76.72
28648;BME280;17137;51.494;-0.262;2023-09-19T01:16:14;50247.65;;;-145.72;76.60
28648;BME280;17137;51.494;-0.262;2023-09-19T01:17:01;50251.23;;;-145.72;76.98
28648;BME280;17137;51.494;-0.262;2023-09-19T01:18:08;50230.39;;;-145.72;76.51
28648;BME280;17137;51.494;-0.262;2023-09-19T01:18:48;50243.71;;;-145.72;76.51
28648;BME280;17137;51.494;-0.262;2023-09-19T01:20:07;50241.36;;;-145.72;76.63
28648;BME280;17137;51.494;-0.262;2023-09-19T01:20:45;50246.05;;;-145.72;76.69
28648;BME280;17137;51.494;-0.262;2023-09-19T01:21:28;50237.42;;;-145.72;76.71
28648;BME280;17137;51.494;-0.262;2023-09-19T01:22:07;50242.72;;;-145.72;77.16
28648;BME280;17137;51.494;-0.262;2023-09-19T01:22:50;50243.09;;;-145.72;77.41
28648;BME280;17137;51.494;-0.262;2023-09-19T01:23:32;50255.42;;;-145.72;77.77
28648;BME280;17137;51.494;-0.262;2023-09-19T01:24:25;50252.46;;;-145.72;78.08
28648;BME280;17137;51.494;-0.262;2023-09-19T01:25:19;50242.47;;;-145.72;77.87
28648;BME280;17137;51.494;-0.262;2023-09-19T01:26:15;50259.12;;;-145.72;78.69
28648;BME280;17137;51.494;-0.262;2023-09-19T01:27:12;50247.65;;;-145.72;78.28
28648;BME280;17137;51.494;-0.262;2023-09-19T01:28:06;50244.94;;;-145.72;77.71
28648;BME280;17137;51.494;-0.262;2023-09-19T01:28:48;50242.72;;;-145.72;77.11
28648;BME280;17137;51.494;-0.262;2023-09-19T01:29:34;50244.94;;;-145.72;76.96
28648;BME280;17137;51.494;-0.262;2023-09-19T01:30:09;50239.02;;;-145.72;76.88
28648;BME280;17137;51.494;-0.262;2023-09-19T01:30:43;50246.67;;;-145.72;76.95
28648;BME280;17137;51.494;-0.262;2023-09-19T01:31:14;50250.24;;;-145.72;76.76
28648;BME280;17137;51.494;-0.262;2023-09-19T01:31:45;50250.49;;;-145.72;76.89
28648;BME280;17137;51.494;-0.262;2023-09-19T01:32:17;50245.19;;;-145.72;76.96
28648;BME280;17137;51.494;-0.262;2023-09-19T01:32:50;50246.05;;;-145.72;77.03
28648;BME280;17137;51.494;-0.262;2023-09-19T01:33:21;50240.75;;;-145.72;76.93
28648;BME280;17137;51.494;-0.262;2023-09-19T01:33:57;50255.66;;;-145.72;77.08
28648;BME280;17137;51.494;-0.262;2023-09-19T01:34:27;50239.89;;;-145.72;76.95
28648;BME280;17137;51.494;-0.262;2023-09-19T01:34:57;50244.08;;;-145.72;76.99
28648;BME280;17137;51.494;-0.262;2023-09-19T01:35:28;50253.32;;;-145.72;77.19
28648;BME280;17137;51.494;-0.262;2023-09-19T01:35:58;50253.44;;;-145.72;76.98
28648;BME280;17137;51.494;-0.262;2023-09-19T01:36:30;50242.72;;;-145.72;76.83
28648;BME280;17137;51.494;-0.262;2023-09-19T01:37:00;50243.58;;;-145.72;77.14
28648;BME280;17137;51.494;-0.262;2023-09-19T01:37:31;50252.71;;;-145.72;77.32
28648;BME280;17137;51.494;-0.262;2023-09-19T01:38:01;50242.60;;;-145.72;77.41
28648;BME280;17137;51.494;-0.262;2023-09-19T01:38:32;50243.09;;;-145.72;77.38
28648;BME280;17137;51.494;-0.262;2023-09-19T01:39:04;50244.69;;;-145.72;77.28
28648;BME280;17137;51.494;-0.262;2023-09-19T01:39:35;50240.38;;;-145.72;76.82
28648;BME280;17137;51.494;-0.262;2023-09-19T01:40:08;50243.34;;;-145.72;76.44
28648;BME280;17137;51.494;-0.262;2023-09-19T01:40:42;50232.37;;;-145.72;76.39
28648;BME280;17137;51.494;-0.262;2023-09-19T01:41:14;50245.19;;;-145.72;76.69
28648;BME280;17137;51.494;-0.262;2023-09-19T01:41:54;50246.79;;;-145.72;76.70
28648;BME280;17137;51.494;-0.262;2023-09-19T01:42:35;50249.99;;;-145.72;76.81
28648;BME280;17137;51.494;-0.262;2023-09-19T01:43:12;50247.77;;;-145.72;76.57
28648;BME280;17137;51.494;-0.262;2023-09-19T01:43:48;50241.36;;;-145.72;76.75
28648;BME280;17137;51.494;-0.262;2023-09-19T01:44:25;50241.98;;;-145.72;76.78
28648;BME280;17137;51.494;-0.262;2023-09-19T01:45:04;50253.08;;;-145.72;76.58
28648;BME280;17137;51.494;-0.262;2023-09-19T01:45:47;50240.01;;;-145.72;76.45
28648;BME280;17137;51.494;-0.262;2023-09-19T01:46:25;50255.79;;;-145.72;76.36
28648;BME280;17137;51.494;-0.262;2023-09-19T01:47:04;50241.36;;;-145.72;77.03
28648;BME280;17137;51.494;-0.262;2023-09-19T01:47:46;50237.54;;;-145.72;77.08
28648;BME280;17137;51.494;-0.262;2023-09-19T01:48:25;50240.99;;;-145.72;76.65
28648;BME280;17137;51.494;-0.262;2023-09-19T01:49:05;50252.95;;;-145.72;76.98
28648;BME280;17137;51.494;-0.262;2023-09-19T01:49:45;50248.27;;;-145.72;77.07
28648;BME280;17137;51.494;-0.262;2023-09-19T01:50:26;50256.90;;;-145.72;77.27
28648;BME280;17137;51.494;-0.262;2023-09-19T01:51:01;50254.06;;;-145.72;77.09
28648;BME280;17137;51.494;-0.262;2023-09-19T01:51:37;50245.31;;;-145.72;76.93
28648;BME280;17137;51.494;-0.262;2023-09-19T01:52:11;50244.57;;;-145.72;76.80
28648;BME280;17137;51.494;-0.262;2023-09-19T01:52:48;50257.14;;;-145.72;77.36
28648;BME280;17137;51.494;-0.262;2023-09-19T01:53:25;50246.54;;;-145.72;77.23
28648;BME280;17137;51.494;-0.262;2023-09-19T01:54:01;50253.81;;;-145.72;77.38
28648;BME280;17137;51.494;-0.262;2023-09-19T01:54:40;50257.02;;;-145.72;77.35
28648;BME280;17137;51.494;-0.262;2023-09-19T01:55:12;50257.02;;;-145.72;77.18
28648;BME280;17137;51.494;-0.262;2023-09-19T01:55:48;50248.27;;;-145.72;77.25
28648;BME280;17137;51.494;-0.262;2023-09-19T01:56:25;50261.21;;;-145.72;77.59
28648;BME280;17137;51.494;-0.262;2023-09-19T01:57:01;50250.36;;;-145.72;77.45
28648;BME280;17137;51.494;-0.262;2023-09-19T01:57:37;50248.64;;;-145.72;77.54
28648;BME280;17137;51.494;-0.262;2023-09-19T01:58:16;50257.39;;;-145.72;77.48
28648;BME280;17137;51.494;-0.262;2023-09-19T01:58:50;50256.53;;;-145.72;77.06
28648;BME280;17137;51.494;-0.262;2023-09-19T01:59:25;50244.57;;;-145.72;76.81
28648;BME280;17137;51.494;-0.262;2023-09-19T02:00:02;50241.49;;;-145.72;76.66
28648;BME280;17137;51.494;-0.262;2023-09-19T02:00:35;50245.19;;;-145.72;76.62
28648;BME280;17137;51.494;-0.262;2023-09-19T02:01:08;50247.16;;;-145.72;76.87
28648;BME280;17137;51.494;-0.262;2023-09-19T02:01:42;50249.75;;;-145.72;76.83
28648;BME280;17137;51.494;-0.262;2023-09-19T02:02:15;50251.60;;;-145.72;77.36
28648;BME280;17137;51.494;-0.262;2023-09-19T02:02:48;50256.40;;;-145.72;77.48
28648;BME280;17137;51.494;-0.262;2023-09-19T02:03:20;50248.64;;;-145.72;77.05
28648;BME280;17137;51.494;-0.262;2023-09-19T02:03:52;50256.77;;;-145.72;77.30
28648;BME280;17137;51.494;-0.262;2023-09-19T02:04:23;50261.33;;;-145.72;77.73
28648;BME280;17137;51.494;-0.262;2023-09-19T02:04:55;50266.63;;;-145.72;78.20
28648;BME280;17137;51.494;-0.262;2023-09-19T02:05:26;50249.13;;;-145.72;77.97
28648;BME280;17137;51.494;-0.262;2023-09-19T02:05:56;50257.27;;;-145.72;78.19
28648;BME280;17137;51.494;-0.262;2023-09-19T02:06:26;50262.57;;;-145.72;77.92
28648;BME280;17137;51.494;-0.262;2023-09-19T02:06:57;50262.69;;;-145.72;78.00
28648;BME280;17137;51.494;-0.262;2023-09-19T02:07:28;50246.54;;;-145.72;77.62
28648;BME280;17137;51.494;-0.262;2023-09-19T02:07:59;50252.58;;;-145.72;77.51
28648;BME280;17137;51.494;-0.262;2023-09-19T02:08:31;50259.61;;;-145.72;77.78
28648;BME280;17137;51.494;-0.262;2023-09-19T02:09:01;50259.24;;;-145.72;78.05
28648;BME280;17137;51.494;-0.262;2023-09-19T02:09:31;50262.44;;;-145.72;78.41
28648;BME280;17137;51.494;-0.262;2023-09-19T02:10:02;50256.40;;;-145.72;78.45
28648;BME280;17137;51.494;-0.262;2023-09-19T02:10:32;50266.39;;;-145.72;78.42
28648;BME280;17137;51.494;-0.262;2023-09-19T02:11:02;50269.47;;;-145.72;78.92
28648;BME280;17137;51.494;-0.262;2023-09-19T02:11:33;50264.66;;;-145.72;78.81
28648;BME280;17137;51.494;-0.262;2023-09-19T02:12:03;50250.61;;;-145.72;78.41
28648;BME280;17137;51.494;-0.262;2023-09-19T02:12:34;50276.37;;;-145.72;78.05
28648;BME280;17137;51.494;-0.262;2023-09-19T02:13:04;50259.85;;;-145.72;78.09
28648;BME280;17137;51.494;-0.262;2023-09-19T02:13:34;50251.47;;;-145.72;77.88
28648;BME280;17137;51.494;-0.262;2023-09-19T02:14:05;50259.73;;;-145.72;77.68
28648;BME280;17137;51.494;-0.262;2023-09-19T02:14:35;50259.49;;;-145.72;77.48
28648;BME280;17137;51.494;-0.262;2023-09-19T02:15:06;50257.76;;;-145.72;77.95
28648;BME280;17137;51.494;-0.262;2023-09-19T02:15:37;50265.90;;;-145.72;78.38
28648;BME280;17137;51.494;-0.262;2023-09-19T02:16:07;50252.58;;;-145.72;77.98
28648;BME280;17137;51.494;-0.262;2023-09-19T02:16:37;50253.20;;;-145.72;77.30
28648;BME280;17137;51.494;-0.262;2023-09-19T02:17:08;50262.32;;;-145.72;77.60
28648;BME280;17137;51.494;-0.262;2023-09-19T02:17:38;50270.09;;;-145.72;77.51
28648;BME280;17137;51.494;-0.262;2023-09-19T02:18:08;50261.83;;;-145.72;78.06
28648;BME280;17137;51.494;-0.262;2023-09-19T02:18:39;50267.87;;;-145.72;78.17
28648;BME280;17137;51.494;-0.262;2023-09-19T02:19:10;50265.53;;;-145.72;78.22
28648;BME280;17137;51.494;-0.262;2023-09-19T02:19:40;50250.24;;;-145.72;77.78
28648;BME280;17137;51.494;-0.262;2023-09-19T02:20:11;50267.87;;;-145.72;78.35
28648;BME280;17137;51.494;-0.262;2023-09-19T02:20:42;50274.03;;;-145.72;78.19
28648;BME280;17137;51.494;-0.262;2023-09-19T02:21:12;50265.77;;;-145.72;78.02
28648;BME280;17137;51.494;-0.262;2023-09-19T02:21:42;50265.90;;;-145.72;78.24
28648;BME280;17137;51.494;-0.262;2023-09-19T02:22:13;50272.18;;;-145.72;78.60
28648;BME280;17137;51.494;-0.262;2023-09-19T02:22:43;50261.09;;;-145.72;78.41
28648;BME280;17137;51.494;-0.262;2023-09-19T02:23:14;50262.57;;;-145.72;78.44
28648;BME280;17137;51.494;-0.262;2023-09-19T02:23:44;50277.85;;;-145.72;78.59
28648;BME280;17137;51.494;-0.262;2023-09-19T02:24:15;50264.42;;;-145.72;78.82
28648;BME280;17137;51.494;-0.262;2023-09-19T02:24:45;50258.01;;;-145.72;78.25
28648;BME280;17137;51.494;-0.262;2023-09-19T02:25:15;50263.92;;;-145.72;78.47
28648;BME280;17137;51.494;-0.262;2023-09-19T02:25:52;50260.84;;;-145.72;78.12
28648;BME280;17137;51.494;-0.262;2023-09-19T02:26:22;50268.85;;;-145.72;78.23
28648;BME280;17137;51.494;-0.262;2023-09-19T02:26:52;50268.11;;;-145.72;78.47
28648;BME280;17137;51.494;-0.262;2023-09-19T02:27:23;50267.13;;;-145.72;78.20
28648;BME280;17137;51.494;-0.262;2023-09-19T02:27:53;50252.46;;;-145.72;78.22
28648;BME280;17137;51.494;-0.262;2023-09-19T02:28:23;50263.55;;;-145.72;78.07
28648;BME280;17137;51.494;-0.262;2023-09-19T02:28:53;50267.25;;;-145.72;78.62
28648;BME280;17137;51.494;-0.262;2023-09-19T02:29:24;50274.28;;;-145.72;79.26
28648;BME280;17137;51.494;-0.262;2023-09-19T02:29:54;50267.62;;;-145.72;79.47
28648;BME280;17137;51.494;-0.262;2023-09-19T02:30:25;50263.31;;;-145.72;78.92
28648;BME280;17137;51.494;-0.262;2023-09-19T02:30:55;50268.61;;;-145.72;78.65
28648;BME280;17137;51.494;-0.262;2023-09-19T02:31:26;50256.16;;;-145.72;78.38
28648;BME280;17137;51.494;-0.262;2023-09-19T02:31:56;50262.69;;;-145.72;78.13
28648;BME280;17137;51.494;-0.262;2023-09-19T02:32:26;50272.43;;;-145.72;78.07
28648;BME280;17137;51.494;-0.262;2023-09-19T02:32:56;50262.44;;;-145.72;78.52
28648;BME280;17137;51.494;-0.262;2023-09-19T02:33:26;50269.84;;;-145.72;78.74
28648;BME280;17137;51.494;-0.262;2023-09-19T02:33:57;50256.53;;;-145.72;78.33
28648;BME280;17137;51.494;-0.262;2023-09-19T02:34:27;50260.22;;;-145.72;77.76
28648;BME280;17137;51.494;-0.262;2023-09-19T02:34:57;50262.07;;;-145.72;77.67
28648;BME280;17137;51.494;-0.262;2023-09-19T02:35:28;50256.40;;;-145.72;77.47
28648;BME280;17137;51.494;-0.262;2023-09-19T02:35:58;50256.03;;;-145.72;77.53
28648;BME280;17137;51.494;-0.262;2023-09-19T02:36:29;50254.06;;;-145.72;77.20
28648;BME280;17137;51.494;-0.262;2023-09-19T02:36:59;50261.58;;;-145.72;76.87
28648;BME280;17137;51.494;-0.262;2023-09-19T02:37:30;50255.66;;;-145.72;76.78
28648;BME280;17137;51.494;-0.262;2023-09-19T02:38:00;50237.30;;;-145.72;76.65
28648;BME280;17137;51.494;-0.262;2023-09-19T02:38:31;50251.60;;;-145.72;77.08
28648;BME280;17137;51.494;-0.262;2023-09-19T02:39:01;50266.88;;;-145.72;77.63
28648;BME280;17137;51.494;-0.262;2023-09-19T02:39:31;50256.16;;;-145.72;77.78
28648;BME280;17137;51.494;-0.262;2023-09-19T02:40:02;50260.35;;;-145.72;77.91
28648;BME280;17137;51.494;-0.262;2023-09-19T02:40:32;50250.73;;;-145.72;77.84
28648;BME280;17137;51.494;-0.262;2023-09-19T02:41:02;50250.24;;;-145.72;77.70
28648;BME280;17137;51.494;-0.262;2023-09-19T02:41:33;50253.94;;;-145.72;77.61
28648;BME280;17137;51.494;-0.262;2023-09-19T02:42:03;50251.10;;;-145.72;77.33
28648;BME280;17137;51.494;-0.262;2023-09-19T02:42:34;50265.03;;;-145.72;78.15
28648;BME280;17137;51.494;-0.262;2023-09-19T02:43:04;50260.96;;;-145.72;78.17
28648;BME280;17137;51.494;-0.262;2023-09-19T02:43:34;50268.36;;;-145.72;78.01
28648;BME280;17137;51.494;-0.262;2023-09-19T02:44:04;50256.90;;;-145.72;77.66
28648;BME280;17137;51.494;-0.262;2023-09-19T02:44:35;50257.39;;;-145.72;77.43
28648;BME280;17137;51.494;-0.262;2023-09-19T02:45:06;50258.99;;;-145.72;77.44
28648;BME280;17137;51.494;-0.262;2023-09-19T02:45:37;50261.09;;;-145.72;77.43
28648;BME280;17137;51.494;-0.262;2023-09-19T02:46:07;50259.61;;;-145.72;77.59
28648;BME280;17137;51.494;-0.262;2023-09-19T02:46:37;50266.88;;;-145.72;77.98